Blue Ridge Highway — 3FEY4 — position and weather

sailwx.info

Track history (hours):
 
Tides and Currents Weather Stations Pressure Air Temp Water Temp Dewpoint Dewpoint Depression Visibility Wind Speed Wind Dir Waves Ship Positions

Blue Ridge Highway

Last reported at 2017-Oct-18 17:22 UTC. Time now 2017-Oct-19 20:20 UTC.
Position N 27°53' W 115°53'.

Length 180 m; draft 8.5 m.

Type: Cargo ship. MMSI: 355558000.

Date/timePositionNaut miles runAvg speedWind from/ knotsBaromVisibWave heightAir tempDewpointWater temp
2017-Oct-18 17:22N 27°53' W 115°53'719.6
2017-Oct-18 17:00N 27°58' W 115°58'4718.9
2017-Oct-18 14:32N 28°35' W 116°30'1019.1
2017-Oct-18 14:00N 28°43' W 116°38'1019.3
2017-Oct-18 13:29N 28°51' W 116°45'3919.2
2017-Oct-18 11:27N 29°21' W 117°14'919.3
2017-Oct-18 10:57N 29°28' W 117°21'919.2
2017-Oct-18 10:29N 29°35' W 117°27'6619.1
2017-Oct-18 07:01N 30°27' W 118°15'318.9
2017-Oct-18 06:52N 30°29' W 118°17'2918.7
2017-Oct-18 05:18N 30°52' W 118°38'618.8
2017-Oct-18 05:00N 30°57' W 118°42'918.6
2017-Oct-18 04:30N 31°04' W 118°49'918.4
2017-Oct-18 04:00N 31°12' W 118°54'1019.0
2017-Oct-18 03:28N 31°21' W 118°60'918.8
2017-Oct-18 03:01N 31°28' W 119°05'1019.0
2017-Oct-18 02:30N 31°37' W 119°10'1019.1
2017-Oct-18 02:01N 31°45' W 119°16'1019.4
2017-Oct-18 01:31N 31°53' W 119°21'1019.5
2017-Oct-18 01:01N 32°02' W 119°27'1019.6
2017-Oct-18 00:30N 32°11' W 119°32'1019.8
2017-Oct-17 23:59N 32°20' W 119°38'1119.7
2017-Oct-17 23:27N 32°29' W 119°44'4019.7
2017-Oct-17 21:25N 33°04' W 120°07'819.6
2017-Oct-17 21:00N 33°11' W 120°12'1019.6
2017-Oct-17 20:30N 33°19' W 120°18'1019.7
2017-Oct-17 20:00N 33°28' W 120°24'1019.7
2017-Oct-17 19:31N 33°36' W 120°30'1019.4
2017-Oct-17 19:00N 33°45' W 120°35'1019.3
2017-Oct-17 18:30N 33°54' W 120°41'1019.3
2017-Oct-17 17:59N 34°02' W 120°47'1019.9
2017-Oct-17 17:30N 34°11' W 120°52'1019.4
2017-Oct-17 17:00N 34°19' W 120°58'918.7
2017-Oct-17 16:30N 34°27' W 121°04'918.5
2017-Oct-17 16:00N 34°35' W 121°09'919.0
2017-Oct-17 15:31N 34°43' W 121°15'918.5
2017-Oct-17 15:01N 34°52' W 121°20'918.9
2017-Oct-17 14:30N 34°60' W 121°25'1019.5
2017-Oct-17 14:00N 35°08' W 121°31'1019.6
2017-Oct-17 13:30N 35°17' W 121°37'919.3
2017-Oct-17 13:01N 35°26' W 121°42'1018.9
2017-Oct-17 12:30N 35°34' W 121°48'1319.0
2017-Oct-17 11:48N 35°46' W 121°57'619.3
2017-Oct-17 11:30N 35°50' W 121°60'1019.1
2017-Oct-17 11:00N 35°59' W 122°05'1019.2
2017-Oct-17 10:28N 36°08' W 122°11'1118.9
2017-Oct-17 09:53N 36°18' W 122°18'3118.9
2017-Oct-17 08:16N 36°46' W 122°32'1518.9
2017-Oct-17 07:27N 37°00' W 122°39'818.7
2017-Oct-17 07:00N 37°08' W 122°42'917.1
2017-Oct-17 06:30N 37°17' W 122°43'510.7
2017-Oct-17 06:00N 37°22' W 122°44'5 9.6
2017-Oct-17 05:30N 37°27' W 122°43'5 9.7
2017-Oct-17 05:00N 37°32' W 122°43'5 9.5
2017-Oct-17 04:30N 37°36' W 122°43'5 9.4
2017-Oct-17 04:00N 37°41' W 122°42'510.3
2017-Oct-17 03:30N 37°46' W 122°40'612.5
2017-Oct-17 03:00N 37°48' W 122°33'714.0
2017-Oct-17 02:30N 37°51' W 122°25'714.7
2017-Oct-17 02:00N 37°58' W 122°26'815.2
2017-Oct-17 01:30N 38°03' W 122°19'713.7
2017-Oct-17 01:00N 38°03' W 122°11'2 3.7
2017-Oct-17 00:27N 38°02' W 122°08'0 0.0
2017-Oct-16 23:51N 38°02' W 122°08'0 0.0
2017-Oct-16 23:27N 38°02' W 122°08'0 0.0
2017-Oct-16 22:51N 38°02' W 122°08'0 0.0
2017-Oct-16 22:27N 38°02' W 122°08'0 0.0
2017-Oct-16 21:57N 38°02' W 122°08'0 0.0
2017-Oct-16 21:27N 38°02' W 122°08'0 0.0
2017-Oct-16 20:57N 38°02' W 122°08'0 0.0
2017-Oct-16 18:21N 38°02' W 122°08'0 0.0
2017-Oct-16 17:57N 38°02' W 122°08'0 0.0
2017-Oct-16 17:03N 38°02' W 122°08'0 0.0
2017-Oct-16 16:51N 38°02' W 122°08'0 0.0
2017-Oct-16 16:27N 38°02' W 122°08'0 0.0
2017-Oct-16 15:57N 38°02' W 122°08'0 0.0
2017-Oct-16 15:27N 38°02' W 122°08'0 0.0
2017-Oct-16 14:57N 38°02' W 122°08'0 0.0
2017-Oct-16 14:27N 38°02' W 122°08'0 0.0
2017-Oct-16 13:27N 38°02' W 122°08'0 0.0
2017-Oct-16 12:51N 38°02' W 122°08'0 0.0
2017-Oct-16 12:27N 38°02' W 122°08'0 0.0
2017-Oct-16 11:57N 38°02' W 122°08'0 0.0
2017-Oct-16 11:27N 38°02' W 122°08'0 0.0
2017-Oct-16 10:57N 38°02' W 122°08'0 0.0
2017-Oct-16 10:27N 38°02' W 122°08'0 0.0
2017-Oct-16 09:45N 38°02' W 122°08'0 0.0
2017-Oct-16 09:27N 38°02' W 122°08'0 0.0
2017-Oct-16 08:57N 38°02' W 122°08'0 0.0
2017-Oct-16 08:27N 38°02' W 122°08'0 0.0
2017-Oct-16 07:57N 38°02' W 122°08'0 0.0
2017-Oct-16 07:27N 38°02' W 122°08'0 0.0
2017-Oct-16 06:51N 38°02' W 122°08'0 0.0
2017-Oct-16 06:27N 38°02' W 122°08'0 0.5
2017-Oct-16 06:01N 38°02' W 122°08'3 6.6
2017-Oct-16 05:29N 38°03' W 122°12'715.4
2017-Oct-16 05:00N 38°02' W 122°21'815.3
2017-Oct-16 04:30N 37°56' W 122°27'612.6
2017-Oct-16 04:00N 37°50' W 122°24'4 8.4
2017-Oct-16 03:31N 37°49' W 122°29'815.4
2017-Oct-16 03:00N 37°46' W 122°38'5 9.7
2017-Oct-16 02:30N 37°43' W 122°43'4 7.1
2017-Oct-16 02:00N 37°41' W 122°47'4 8.3
2017-Oct-16 01:30N 37°38' W 122°51'5 9.3
2017-Oct-16 01:00N 37°36' W 122°56'5 9.4
2017-Oct-16 00:30N 37°33' W 123°01'5 9.1
2017-Oct-16 00:00N 37°30' W 123°05'510.4
2017-Oct-15 23:31N 37°28' W 123°11'815.1
2017-Oct-15 22:57N 37°25' W 123°21'1314.8
2017-Oct-15 22:04N 37°21' W 123°37'215.2
2017-Oct-15 21:58N 37°20' W 123°38'814.8
2017-Oct-15 21:27N 37°18' W 123°47'5 3.0
2017-Oct-15 19:57N 37°17' W 123°53'1 1.3
2017-Oct-15 19:26N 37°18' W 123°53'0 1.2
2017-Oct-15 19:00N 37°18' W 123°53'0 0.9
2017-Oct-15 18:30N 37°19' W 123°53'0 1.0
2017-Oct-15 18:00N 37°19' W 123°53'1 1.5
2017-Oct-15 17:30N 37°20' W 123°52'0 0.2
2017-Oct-15 17:00N 37°20' W 123°52'4 9.0
2017-Oct-15 16:30N 37°18' W 123°58'714.8
2017-Oct-15 16:00N 37°16' W 124°07'5915.0
2017-Oct-15 12:03N 36°53' W 125°15'114.7
2017-Oct-15 12:00N 36°53' W 125°16'815.3
2017-Oct-15 11:30N 36°50' W 125°24'814.8
2017-Oct-15 10:59N 36°47' W 125°33'  
Track history (hours):
 
Tides and Currents Weather Stations Pressure Air Temp Water Temp Dewpoint Dewpoint Depression Visibility Wind Speed Wind Dir Waves Ship Positions

Blue Ridge Highway

Last reported at 2017-Oct-18 17:22 UTC. Time now 2017-Oct-19 20:20 UTC.
Position N 27°53' W 115°53'.

Length 180 m; draft 8.5 m.

Type: Cargo ship. MMSI: 355558000.

Date/timePositionNaut miles runAvg speedWind from/ knotsBaromVisibWave heightAir tempDewpointWater temp
2017-Oct-18 17:22N 27°53' W 115°53'719.6
2017-Oct-18 17:00N 27°58' W 115°58'4718.9
2017-Oct-18 14:32N 28°35' W 116°30'1019.1
2017-Oct-18 14:00N 28°43' W 116°38'1019.3
2017-Oct-18 13:29N 28°51' W 116°45'3919.2
2017-Oct-18 11:27N 29°21' W 117°14'919.3
2017-Oct-18 10:57N 29°28' W 117°21'919.2
2017-Oct-18 10:29N 29°35' W 117°27'6619.1
2017-Oct-18 07:01N 30°27' W 118°15'318.9
2017-Oct-18 06:52N 30°29' W 118°17'2918.7
2017-Oct-18 05:18N 30°52' W 118°38'618.8
2017-Oct-18 05:00N 30°57' W 118°42'918.6
2017-Oct-18 04:30N 31°04' W 118°49'918.4
2017-Oct-18 04:00N 31°12' W 118°54'1019.0
2017-Oct-18 03:28N 31°21' W 118°60'918.8
2017-Oct-18 03:01N 31°28' W 119°05'1019.0
2017-Oct-18 02:30N 31°37' W 119°10'1019.1
2017-Oct-18 02:01N 31°45' W 119°16'1019.4
2017-Oct-18 01:31N 31°53' W 119°21'1019.5
2017-Oct-18 01:01N 32°02' W 119°27'1019.6
2017-Oct-18 00:30N 32°11' W 119°32'1019.8
2017-Oct-17 23:59N 32°20' W 119°38'1119.7
2017-Oct-17 23:27N 32°29' W 119°44'4019.7
2017-Oct-17 21:25N 33°04' W 120°07'819.6
2017-Oct-17 21:00N 33°11' W 120°12'1019.6
2017-Oct-17 20:30N 33°19' W 120°18'1019.7
2017-Oct-17 20:00N 33°28' W 120°24'1019.7
2017-Oct-17 19:31N 33°36' W 120°30'1019.4
2017-Oct-17 19:00N 33°45' W 120°35'1019.3
2017-Oct-17 18:30N 33°54' W 120°41'1019.3
2017-Oct-17 17:59N 34°02' W 120°47'1019.9
2017-Oct-17 17:30N 34°11' W 120°52'1019.4
2017-Oct-17 17:00N 34°19' W 120°58'918.7
2017-Oct-17 16:30N 34°27' W 121°04'918.5
2017-Oct-17 16:00N 34°35' W 121°09'919.0
2017-Oct-17 15:31N 34°43' W 121°15'918.5
2017-Oct-17 15:01N 34°52' W 121°20'918.9
2017-Oct-17 14:30N 34°60' W 121°25'1019.5
2017-Oct-17 14:00N 35°08' W 121°31'1019.6
2017-Oct-17 13:30N 35°17' W 121°37'919.3
2017-Oct-17 13:01N 35°26' W 121°42'1018.9
2017-Oct-17 12:30N 35°34' W 121°48'1319.0
2017-Oct-17 11:48N 35°46' W 121°57'619.3
2017-Oct-17 11:30N 35°50' W 121°60'1019.1
2017-Oct-17 11:00N 35°59' W 122°05'1019.2
2017-Oct-17 10:28N 36°08' W 122°11'1118.9
2017-Oct-17 09:53N 36°18' W 122°18'3118.9
2017-Oct-17 08:16N 36°46' W 122°32'1518.9
2017-Oct-17 07:27N 37°00' W 122°39'818.7
2017-Oct-17 07:00N 37°08' W 122°42'917.1
2017-Oct-17 06:30N 37°17' W 122°43'510.7
2017-Oct-17 06:00N 37°22' W 122°44'5 9.6
2017-Oct-17 05:30N 37°27' W 122°43'5 9.7
2017-Oct-17 05:00N 37°32' W 122°43'5 9.5
2017-Oct-17 04:30N 37°36' W 122°43'5 9.4
2017-Oct-17 04:00N 37°41' W 122°42'510.3
2017-Oct-17 03:30N 37°46' W 122°40'612.5
2017-Oct-17 03:00N 37°48' W 122°33'714.0
2017-Oct-17 02:30N 37°51' W 122°25'714.7
2017-Oct-17 02:00N 37°58' W 122°26'815.2
2017-Oct-17 01:30N 38°03' W 122°19'713.7
2017-Oct-17 01:00N 38°03' W 122°11'2 3.7
2017-Oct-17 00:27N 38°02' W 122°08'0 0.0
2017-Oct-16 23:51N 38°02' W 122°08'0 0.0
2017-Oct-16 23:27N 38°02' W 122°08'0 0.0
2017-Oct-16 22:51N 38°02' W 122°08'0 0.0
2017-Oct-16 22:27N 38°02' W 122°08'0 0.0
2017-Oct-16 21:57N 38°02' W 122°08'0 0.0
2017-Oct-16 21:27N 38°02' W 122°08'0 0.0
2017-Oct-16 20:57N 38°02' W 122°08'0 0.0
2017-Oct-16 18:21N 38°02' W 122°08'0 0.0
2017-Oct-16 17:57N 38°02' W 122°08'0 0.0
2017-Oct-16 17:03N 38°02' W 122°08'0 0.0
2017-Oct-16 16:51N 38°02' W 122°08'0 0.0
2017-Oct-16 16:27N 38°02' W 122°08'0 0.0
2017-Oct-16 15:57N 38°02' W 122°08'0 0.0
2017-Oct-16 15:27N 38°02' W 122°08'0 0.0
2017-Oct-16 14:57N 38°02' W 122°08'0 0.0
2017-Oct-16 14:27N 38°02' W 122°08'0 0.0
2017-Oct-16 13:27N 38°02' W 122°08'0 0.0
2017-Oct-16 12:51N 38°02' W 122°08'0 0.0
2017-Oct-16 12:27N 38°02' W 122°08'0 0.0
2017-Oct-16 11:57N 38°02' W 122°08'0 0.0
2017-Oct-16 11:27N 38°02' W 122°08'0 0.0
2017-Oct-16 10:57N 38°02' W 122°08'0 0.0
2017-Oct-16 10:27N 38°02' W 122°08'0 0.0
2017-Oct-16 09:45N 38°02' W 122°08'0 0.0
2017-Oct-16 09:27N 38°02' W 122°08'0 0.0
2017-Oct-16 08:57N 38°02' W 122°08'0 0.0
2017-Oct-16 08:27N 38°02' W 122°08'0 0.0
2017-Oct-16 07:57N 38°02' W 122°08'0 0.0
2017-Oct-16 07:27N 38°02' W 122°08'0 0.0
2017-Oct-16 06:51N 38°02' W 122°08'0 0.0
2017-Oct-16 06:27N 38°02' W 122°08'0 0.5
2017-Oct-16 06:01N 38°02' W 122°08'3 6.6
2017-Oct-16 05:29N 38°03' W 122°12'715.4
2017-Oct-16 05:00N 38°02' W 122°21'815.3
2017-Oct-16 04:30N 37°56' W 122°27'612.6
2017-Oct-16 04:00N 37°50' W 122°24'4 8.4
2017-Oct-16 03:31N 37°49' W 122°29'815.4
2017-Oct-16 03:00N 37°46' W 122°38'5 9.7
2017-Oct-16 02:30N 37°43' W 122°43'4 7.1
2017-Oct-16 02:00N 37°41' W 122°47'4 8.3
2017-Oct-16 01:30N 37°38' W 122°51'5 9.3
2017-Oct-16 01:00N 37°36' W 122°56'5 9.4
2017-Oct-16 00:30N 37°33' W 123°01'5 9.1
2017-Oct-16 00:00N 37°30' W 123°05'510.4
2017-Oct-15 23:31N 37°28' W 123°11'815.1
2017-Oct-15 22:57N 37°25' W 123°21'1314.8
2017-Oct-15 22:04N 37°21' W 123°37'215.2
2017-Oct-15 21:58N 37°20' W 123°38'814.8
2017-Oct-15 21:27N 37°18' W 123°47'5 3.0
2017-Oct-15 19:57N 37°17' W 123°53'1 1.3
2017-Oct-15 19:26N 37°18' W 123°53'0 1.2
2017-Oct-15 19:00N 37°18' W 123°53'0 0.9
2017-Oct-15 18:30N 37°19' W 123°53'0 1.0
2017-Oct-15 18:00N 37°19' W 123°53'1 1.5
2017-Oct-15 17:30N 37°20' W 123°52'0 0.2
2017-Oct-15 17:00N 37°20' W 123°52'4 9.0
2017-Oct-15 16:30N 37°18' W 123°58'714.8
2017-Oct-15 16:00N 37°16' W 124°07'5915.0
2017-Oct-15 12:03N 36°53' W 125°15'114.7
2017-Oct-15 12:00N 36°53' W 125°16'815.3
2017-Oct-15 11:30N 36°50' W 125°24'814.8
2017-Oct-15 10:59N 36°47' W 125°33'  

Dump ship's entire track history